createdAt,value
2019-03-01T00:00:58.651Z,98199.53
2019-03-01T00:03:29.735Z,98202.06
2019-03-01T00:06:12.720Z,98198.86
2019-03-01T00:08:58.908Z,98194.84
2019-03-01T00:11:45.288Z,98184.61
2019-03-01T00:14:52.708Z,98188.64
2019-03-01T00:17:32.599Z,98200.39
2019-03-01T00:20:38.824Z,98192.48
2019-03-01T00:23:42.120Z,98183.25
2019-03-01T00:26:21.963Z,98189.13
2019-03-01T00:28:56.085Z,98194.68
2019-03-01T00:31:36.024Z,98195.34
2019-03-01T00:34:22.184Z,98200.56
2019-03-01T00:37:15.620Z,98198.55
2019-03-01T00:39:58.495Z,98197.88
2019-03-01T00:43:05.605Z,98200.23
2019-03-01T00:45:36.596Z,98205.44
2019-03-01T00:48:07.463Z,98205.08
2019-03-01T00:50:38.672Z,98207.11
2019-03-01T00:53:09.619Z,98203.91
2019-03-01T00:55:40.562Z,98214.47
2019-03-01T00:58:11.426Z,98201.91
2019-03-01T01:00:45.926Z,98214.81
2019-03-01T01:03:16.793Z,98211.13
2019-03-01T01:05:47.795Z,98216.32
2019-03-01T01:08:18.837Z,98221.19
2019-03-01T01:10:49.766Z,98222.70
2019-03-01T01:13:20.622Z,98212.63
2019-03-01T01:15:51.616Z,98218.84
2019-03-01T01:18:22.484Z,98198.03
2019-03-01T01:20:53.365Z,98218.16
2019-03-01T01:23:24.222Z,98225.05
2019-03-01T01:25:55.083Z,98229.74
2019-03-01T01:28:27.141Z,98216.69
2019-03-01T01:30:58.111Z,98226.23
2019-03-01T01:33:28.984Z,98227.88
2019-03-01T01:35:59.852Z,98224.53
2019-03-01T01:38:30.719Z,98229.23
2019-03-01T01:41:01.652Z,98227.22
2019-03-01T01:43:32.702Z,98225.87
2019-03-01T01:46:03.566Z,98231.23
2019-03-01T01:48:34.479Z,98234.93
2019-03-01T01:51:05.437Z,98243.16
2019-03-01T01:53:36.395Z,98235.45
2019-03-01T01:56:07.398Z,98232.25
2019-03-01T01:58:38.390Z,98252.55
2019-03-01T02:01:09.380Z,98247.85
2019-03-01T02:03:40.353Z,98261.78
2019-03-01T02:06:11.368Z,98252.20
2019-03-01T02:08:42.297Z,98248.36
2019-03-01T02:11:13.199Z,98250.38
2019-03-01T02:13:44.097Z,98257.92
2019-03-01T02:16:15.018Z,98249.56
2019-03-01T02:18:46.071Z,98244.52
2019-03-01T02:21:16.940Z,98251.73
2019-03-01T02:23:47.968Z,98254.76
2019-03-01T02:26:19.069Z,98251.39
2019-03-01T02:28:50.024Z,98256.09
2019-03-01T02:31:20.963Z,98255.73
2019-03-01T02:33:51.936Z,98264.47
2019-03-01T02:36:22.791Z,98265.97
2019-03-01T02:38:53.831Z,98260.61
2019-03-01T02:41:24.815Z,98268.81
2019-03-01T02:43:55.803Z,98269.66
2019-03-01T02:46:26.908Z,98281.38
2019-03-01T02:48:57.807Z,98281.70
2019-03-01T02:51:28.827Z,98275.48
2019-03-01T02:53:59.676Z,98279.33
2019-03-01T02:56:30.582Z,98284.16
2019-03-01T02:59:01.430Z,98297.56
2019-03-01T03:01:32.437Z,98285.31
2019-03-01T03:04:03.372Z,98289.32
2019-03-01T03:06:39.025Z,98284.62
2019-03-01T03:09:10.040Z,98278.95
2019-03-01T03:11:41.483Z,98282.11
2019-03-01T03:14:12.458Z,98279.07
2019-03-01T03:16:43.404Z,98276.59
2019-03-01T03:19:14.342Z,98285.62
2019-03-01T03:21:45.202Z,98285.98
2019-03-01T03:24:16.214Z,98286.13
2019-03-01T03:26:48.541Z,98280.13
2019-03-01T03:29:20.158Z,98276.94
2019-03-01T03:31:50.955Z,98277.64
2019-03-01T03:34:21.884Z,98281.16
2019-03-01T03:36:53.240Z,98266.58
2019-03-01T03:39:24.242Z,98268.94
2019-03-01T03:41:55.243Z,98270.11
2019-03-01T03:44:26.288Z,98272.47
2019-03-01T03:46:57.324Z,98276.47
2019-03-01T03:49:28.308Z,98273.81
2019-03-01T03:51:59.781Z,98277.13
2019-03-01T03:54:30.698Z,98277.63
2019-03-01T03:57:01.598Z,98276.83
2019-03-01T03:59:32.586Z,98276.81
2019-03-01T04:02:03.574Z,98280.79
2019-03-01T04:04:35.588Z,98286.11
2019-03-01T04:07:06.442Z,98279.90
2019-03-01T04:09:37.520Z,98275.86
2019-03-01T04:12:08.377Z,98277.20
2019-03-01T04:14:39.313Z,98275.47
2019-03-01T04:17:10.297Z,98274.27
2019-03-01T04:19:41.190Z,98283.81
2019-03-01T04:22:12.054Z,98280.17
2019-03-01T04:24:43.094Z,98279.83
2019-03-01T04:27:15.236Z,98271.67
2019-03-01T04:29:46.190Z,98267.31
2019-03-01T04:32:17.195Z,98270.14
2019-03-01T04:34:48.265Z,98274.66
2019-03-01T04:37:19.128Z,98270.84
2019-03-01T04:39:50.111Z,98272.70
2019-03-01T04:42:21.077Z,98266.84
2019-03-01T04:44:52.115Z,98273.71
2019-03-01T04:47:22.965Z,98270.74
2019-03-01T04:49:53.860Z,98269.59
2019-03-01T04:52:35.713Z,98271.23
2019-03-01T04:55:15.431Z,98278.13
2019-03-01T04:57:46.362Z,98278.13
2019-03-01T05:00:19.890Z,98274.45
2019-03-01T05:02:50.868Z,98278.66
2019-03-01T05:05:21.909Z,98280.66
2019-03-01T05:07:52.881Z,98281.51
2019-03-01T05:10:23.827Z,98282.53
2019-03-01T05:12:55.984Z,98281.36
2019-03-01T05:15:26.927Z,98284.55
2019-03-01T05:17:57.895Z,98300.98
2019-03-01T05:20:31.052Z,98296.27
2019-03-01T05:23:01.629Z,98291.92
2019-03-01T05:25:32.929Z,98288.56
2019-03-01T05:28:03.901Z,98313.73
2019-03-01T05:30:34.830Z,98317.90
2019-03-01T05:33:05.800Z,98314.24
2019-03-01T05:35:36.655Z,98312.39
2019-03-01T05:38:07.675Z,98323.30
2019-03-01T05:40:38.681Z,98326.31
2019-03-01T05:43:09.650Z,98339.70
2019-03-01T05:45:40.505Z,98315.22
2019-03-01T05:48:11.495Z,98333.38
2019-03-01T05:50:42.359Z,98340.37
2019-03-01T05:53:13.373Z,98342.59
2019-03-01T05:55:44.360Z,98360.32
2019-03-01T05:58:28.794Z,98357.28
2019-03-01T06:01:05.960Z,98364.20
2019-03-01T06:03:55.251Z,98374.42
2019-03-01T06:06:55.149Z,98369.27
2019-03-01T06:09:48.721Z,98372.78
2019-03-01T06:12:31.843Z,98393.20
2019-03-01T06:15:33.199Z,98380.16
2019-03-01T06:18:16.074Z,98375.80
2019-03-01T06:20:59.323Z,98379.81
2019-03-01T06:23:53.028Z,98382.49
2019-03-01T06:26:39.151Z,98384.17
2019-03-01T06:29:30.201Z,98381.80
2019-03-01T06:32:37.929Z,98385.04
2019-03-01T06:35:24.318Z,98391.83
2019-03-01T06:38:31.385Z,98406.24
2019-03-01T06:41:34.594Z,98398.05
2019-03-01T06:44:14.475Z,98400.59
2019-03-01T06:47:03.733Z,98393.53
2019-03-01T06:49:36.289Z,98390.19
2019-03-01T06:52:07.344Z,98389.22
2019-03-01T06:54:38.450Z,98389.36
2019-03-01T06:57:09.505Z,98387.05
2019-03-01T06:59:40.609Z,98400.59
2019-03-01T07:02:13.134Z,98399.81
2019-03-01T07:04:44.142Z,98400.80
2019-03-01T07:07:15.191Z,98399.30
2019-03-01T07:09:46.342Z,98397.81
2019-03-01T07:12:17.493Z,98401.64
2019-03-01T07:14:48.489Z,98404.67
2019-03-01T07:17:19.490Z,98405.70
2019-03-01T07:19:50.554Z,98422.65
2019-03-01T07:22:21.572Z,98394.96
2019-03-01T07:24:52.648Z,98400.65
2019-03-01T07:27:23.589Z,98404.34
2019-03-01T07:29:54.648Z,98405.02
2019-03-01T07:32:25.702Z,98410.88
2019-03-01T07:34:56.737Z,98411.39
2019-03-01T07:37:27.783Z,98416.11
2019-03-01T07:39:58.790Z,98414.75
2019-03-01T07:42:29.692Z,98413.59
2019-03-01T07:45:00.669Z,98416.75
2019-03-01T07:47:34.094Z,98429.86
2019-03-01T07:50:07.892Z,98420.58
2019-03-01T07:52:38.758Z,98437.75
2019-03-01T07:55:10.975Z,98429.20
2019-03-01T07:57:42.147Z,98437.92
2019-03-01T08:00:15.094Z,98446.98
2019-03-01T08:02:46.109Z,98447.16
2019-03-01T08:05:17.038Z,98453.37
2019-03-01T08:07:55.593Z,98435.55
2019-03-01T08:10:22.575Z,98452.35
2019-03-01T08:12:53.726Z,98461.41
2019-03-01T08:15:24.770Z,98455.05
2019-03-01T08:17:55.740Z,98462.77
2019-03-01T08:20:26.892Z,98463.27
2019-03-01T08:22:59.851Z,98450.16
2019-03-01T08:25:30.573Z,98459.38
2019-03-01T08:28:01.674Z,98460.22
2019-03-01T08:30:32.725Z,98461.20
2019-03-01T08:33:06.792Z,98445.58
2019-03-01T08:35:36.665Z,98466.40
2019-03-01T08:38:07.740Z,98480.66
2019-03-01T08:40:38.869Z,98479.86
2019-03-01T08:43:12.986Z,98460.53
2019-03-01T08:45:42.644Z,98477.00
2019-03-01T08:48:13.711Z,98457.32
2019-03-01T08:50:44.931Z,98488.62
2019-03-01T08:53:16.518Z,98501.86
2019-03-01T08:55:47.630Z,98488.73
2019-03-01T08:58:18.939Z,98522.66
2019-03-01T09:00:59.042Z,98506.86
2019-03-01T09:03:27.169Z,98490.72
2019-03-01T09:05:58.253Z,98497.23
2019-03-01T09:08:29.373Z,98481.31
2019-03-01T09:11:00.815Z,98497.59
2019-03-01T09:13:32.298Z,98521.27
2019-03-01T09:16:03.512Z,98507.22
2019-03-01T09:18:34.585Z,98498.67
2019-03-01T09:21:06.268Z,98502.36
2019-03-01T09:23:39.532Z,98520.17
2019-03-01T09:26:10.054Z,98536.33
2019-03-01T09:28:42.034Z,98534.09
2019-03-01T09:31:12.943Z,98533.27
2019-03-01T09:33:43.911Z,98535.80
2019-03-01T09:36:21.306Z,98536.47
2019-03-01T09:38:52.020Z,98520.53
2019-03-01T09:41:22.956Z,98520.19
2019-03-01T09:43:54.102Z,98532.45
2019-03-01T09:46:28.163Z,98521.70
2019-03-01T09:48:57.940Z,98515.75
2019-03-01T09:51:29.006Z,98504.69
2019-03-01T09:54:01.086Z,98525.38
2019-03-01T09:56:32.389Z,98523.21
2019-03-01T09:59:03.322Z,98530.25
2019-03-01T10:01:34.434Z,98518.33
2019-03-01T10:04:05.418Z,98523.19
2019-03-01T10:06:38.468Z,98531.44
2019-03-01T10:09:11.071Z,98532.45
2019-03-01T10:11:42.208Z,98548.08
2019-03-01T10:14:13.414Z,98545.23
2019-03-01T10:16:44.563Z,98562.35
2019-03-01T10:19:15.610Z,98527.58
2019-03-01T10:21:47.709Z,98548.58
2019-03-01T10:24:18.818Z,98536.80
2019-03-01T10:26:50.877Z,98534.95
2019-03-01T10:29:22.024Z,98545.84
2019-03-01T10:31:53.150Z,98544.51
2019-03-01T10:34:24.284Z,98547.70
2019-03-01T10:36:55.410Z,98561.00
2019-03-01T10:39:26.394Z,98546.73
2019-03-01T10:41:57.447Z,98568.55
2019-03-01T10:44:28.526Z,98579.45
2019-03-01T10:46:59.685Z,98580.44
2019-03-01T10:49:30.765Z,98567.33
2019-03-01T10:52:01.849Z,98582.76
2019-03-01T10:54:32.964Z,98577.75
2019-03-01T10:57:03.883Z,98578.94
2019-03-01T10:59:34.863Z,98581.95
2019-03-01T11:02:06.120Z,98586.73
2019-03-01T11:04:37.174Z,98584.72
2019-03-01T11:07:08.033Z,98589.41
2019-03-01T11:09:39.038Z,98606.95
2019-03-01T11:12:10.058Z,98597.00
2019-03-01T11:14:41.013Z,98595.33
2019-03-01T11:17:12.010Z,98615.77
2019-03-01T11:19:42.941Z,98598.20
2019-03-01T11:22:13.953Z,98598.58
2019-03-01T11:24:45.080Z,98603.50
2019-03-01T11:27:16.189Z,98600.47
2019-03-01T11:29:47.141Z,98621.15
2019-03-01T11:32:18.470Z,98606.83
2019-03-01T11:34:49.671Z,98613.48
2019-03-01T11:37:20.902Z,98618.55
2019-03-01T11:39:51.878Z,98641.52
2019-03-01T11:42:22.887Z,98631.98
2019-03-01T11:44:53.786Z,98641.73
2019-03-01T11:47:24.841Z,98643.70
2019-03-01T11:49:55.930Z,98620.56
2019-03-01T11:52:27.044Z,98632.84
2019-03-01T11:54:58.021Z,98643.74
2019-03-01T11:57:29.167Z,98647.23
2019-03-01T12:00:00.322Z,98639.66
2019-03-01T12:02:31.514Z,98650.66
2019-03-01T12:05:02.671Z,98652.49
2019-03-01T12:07:34.222Z,98666.23
2019-03-01T12:10:08.020Z,98671.83
2019-03-01T12:12:39.035Z,98671.14
2019-03-01T12:15:11.823Z,98674.40
2019-03-01T12:17:42.836Z,98689.82
2019-03-01T12:20:19.601Z,98690.05
2019-03-01T12:22:50.692Z,98699.79
2019-03-01T12:25:21.806Z,98687.84
2019-03-01T12:27:53.994Z,98694.42
2019-03-01T12:30:26.378Z,98741.70
2019-03-01T12:32:57.354Z,98708.59
2019-03-01T12:35:28.373Z,98696.36
2019-03-01T12:37:59.276Z,98694.73
2019-03-01T12:40:31.549Z,98695.36
2019-03-01T12:43:02.457Z,98717.53
2019-03-01T12:45:33.658Z,98723.25
2019-03-01T12:48:04.691Z,98712.16
2019-03-01T12:50:35.800Z,98709.56
2019-03-01T12:53:06.918Z,98709.42
2019-03-01T12:55:39.078Z,98698.16
2019-03-01T12:58:19.011Z,98702.08
2019-03-01T13:00:43.065Z,98731.13
2019-03-01T13:03:14.094Z,98727.06
2019-03-01T13:05:45.190Z,98742.34
2019-03-01T13:08:16.699Z,98726.63
2019-03-01T13:10:47.714Z,98746.48
2019-03-01T13:13:18.717Z,98744.28
2019-03-01T13:15:52.209Z,98746.59
2019-03-01T13:18:22.438Z,98736.41
2019-03-01T13:20:53.489Z,98745.46
2019-03-01T13:23:24.694Z,98753.84
2019-03-01T13:25:56.433Z,98758.52
2019-03-01T13:28:27.374Z,98760.80
2019-03-01T13:30:58.514Z,98756.31
2019-03-01T13:33:29.571Z,98751.56
2019-03-01T13:36:03.683Z,98756.70
2019-03-01T13:38:35.100Z,98776.52
2019-03-01T13:41:06.336Z,98757.73
2019-03-01T13:43:37.555Z,98762.41
2019-03-01T13:46:08.761Z,98768.00
2019-03-01T13:48:39.950Z,98779.96
2019-03-01T13:51:13.853Z,98786.84
2019-03-01T13:53:48.982Z,98793.81
2019-03-01T13:56:17.355Z,98800.00
2019-03-01T13:58:48.681Z,98789.80
2019-03-01T14:01:20.067Z,98793.87
2019-03-01T14:03:51.385Z,98780.13
2019-03-01T14:06:23.007Z,98785.08
2019-03-01T14:08:54.370Z,98809.44
2019-03-01T14:11:25.640Z,98808.53
2019-03-01T14:13:56.973Z,98806.42
2019-03-01T14:16:28.358Z,98802.94
2019-03-01T14:18:59.686Z,98819.31
2019-03-01T14:21:33.072Z,98818.91
2019-03-01T14:24:04.029Z,98844.92
2019-03-01T14:26:35.266Z,98828.25
2019-03-01T14:29:06.630Z,98830.93
2019-03-01T14:31:39.823Z,98837.41
2019-03-01T14:34:11.502Z,98839.05
2019-03-01T14:36:44.057Z,98846.45
2019-03-01T14:39:16.831Z,98852.22
2019-03-01T14:41:48.209Z,98862.71
2019-03-01T14:44:19.482Z,98869.36
2019-03-01T14:46:52.981Z,98860.56
2019-03-01T14:49:23.854Z,98869.17
2019-03-01T14:51:55.571Z,98872.95
2019-03-01T14:54:26.964Z,98873.73
2019-03-01T14:56:58.630Z,98875.13
2019-03-01T14:59:38.289Z,98884.22
2019-03-01T15:02:12.021Z,98881.05
2019-03-01T15:04:43.449Z,98882.05
2019-03-01T15:07:14.753Z,98885.61
2019-03-01T15:09:46.079Z,98893.95
2019-03-01T15:12:21.060Z,98894.35
2019-03-01T15:14:51.062Z,98896.05
2019-03-01T15:17:22.678Z,98902.50
2019-03-01T15:19:54.313Z,98904.89
2019-03-01T15:22:25.736Z,98915.70
2019-03-01T15:24:57.133Z,98920.47
2019-03-01T15:27:28.411Z,98941.89
2019-03-01T15:29:59.807Z,98931.35
2019-03-01T15:32:34.857Z,98940.65
2019-03-01T15:35:05.564Z,98941.45
2019-03-01T15:37:36.863Z,98938.70
2019-03-01T15:40:10.518Z,98946.39
2019-03-01T15:42:42.305Z,98958.62
2019-03-01T15:45:15.410Z,98966.05
2019-03-01T15:47:46.793Z,98964.01
2019-03-01T15:50:18.164Z,98968.61
2019-03-01T15:52:50.681Z,98974.98
2019-03-01T15:55:22.227Z,98966.75
2019-03-01T15:57:56.425Z,98984.81
2019-03-01T16:00:29.453Z,98986.88
2019-03-01T16:02:59.563Z,98987.75
2019-03-01T16:05:34.186Z,98997.31
2019-03-01T16:08:05.561Z,99012.59
2019-03-01T16:10:38.178Z,99000.69
2019-03-01T16:13:11.990Z,99008.06
2019-03-01T16:15:42.537Z,99009.72
2019-03-01T16:18:13.848Z,99017.63
2019-03-01T16:20:47.201Z,99024.47
2019-03-01T16:23:18.265Z,99020.19
2019-03-01T16:25:52.987Z,99016.17
2019-03-01T16:28:22.679Z,99031.69
2019-03-01T16:30:56.698Z,99030.20
2019-03-01T16:33:29.761Z,99029.25
2019-03-01T16:36:01.102Z,99041.38
2019-03-01T16:38:40.763Z,99048.52
2019-03-01T16:41:07.749Z,99043.78
2019-03-01T16:43:38.579Z,99048.94
2019-03-01T16:46:11.036Z,99054.91
2019-03-01T16:48:43.415Z,99049.80
2019-03-01T16:51:15.555Z,99050.70
2019-03-01T16:53:47.731Z,99046.60
2019-03-01T16:56:19.002Z,99059.77
2019-03-01T16:58:50.279Z,99060.00
2019-03-01T17:01:21.974Z,99053.94
2019-03-01T17:03:53.750Z,99057.73
2019-03-01T17:06:26.035Z,99058.08
2019-03-01T17:08:57.274Z,99055.05
2019-03-01T17:11:28.634Z,99055.48
2019-03-01T17:14:02.747Z,99053.16
2019-03-01T17:16:33.452Z,99049.62
2019-03-01T17:19:04.718Z,99058.02
2019-03-01T17:21:36.010Z,99044.62
2019-03-01T17:24:07.328Z,99055.02
2019-03-01T17:26:39.152Z,99059.91
2019-03-01T17:29:10.538Z,99068.57
2019-03-01T17:31:41.881Z,99064.13
2019-03-01T17:34:13.228Z,99072.52
2019-03-01T17:36:44.468Z,99064.05
2019-03-01T17:39:16.706Z,99069.36
2019-03-01T17:41:48.721Z,99075.27
2019-03-01T17:44:20.066Z,99076.88
2019-03-01T17:46:51.405Z,99084.57
2019-03-01T17:49:22.680Z,99089.53
2019-03-01T17:51:56.507Z,99093.73
2019-03-01T17:54:26.954Z,99086.92
2019-03-01T17:56:58.366Z,99098.74
2019-03-01T17:59:29.683Z,99075.34
2019-03-01T18:02:01.045Z,99084.02
2019-03-01T18:04:33.577Z,99093.73
2019-03-01T18:07:05.489Z,99099.26
2019-03-01T18:09:36.932Z,99103.83
2019-03-01T18:12:08.275Z,99108.33
2019-03-01T18:14:39.633Z,99112.86
2019-03-01T18:17:10.879Z,99118.43
2019-03-01T18:19:42.148Z,99125.13
2019-03-01T18:22:13.410Z,99117.20
2019-03-01T18:24:46.702Z,99116.17
2019-03-01T18:27:18.728Z,99115.61
2019-03-01T18:29:51.191Z,99122.80
2019-03-01T18:32:22.426Z,99119.77
2019-03-01T18:34:53.799Z,99126.94
2019-03-01T18:37:25.054Z,99122.09
2019-03-01T18:39:56.330Z,99121.73
2019-03-01T18:42:27.681Z,99123.85
2019-03-01T18:44:59.092Z,99132.87
2019-03-01T18:47:30.769Z,99138.09
2019-03-01T18:50:02.908Z,99135.84
2019-03-01T18:52:37.279Z,99138.63
2019-03-01T18:55:13.662Z,99135.33
2019-03-01T18:57:43.349Z,99123.84
2019-03-01T19:00:26.286Z,99138.85
2019-03-01T19:02:57.578Z,99137.59
2019-03-01T19:05:28.634Z,99131.17
2019-03-01T19:08:00.827Z,99132.67
2019-03-01T19:10:33.097Z,99131.13
2019-03-01T19:13:04.013Z,99131.75
2019-03-01T19:15:34.886Z,99129.07
2019-03-01T19:18:06.284Z,99121.94
2019-03-01T19:20:41.542Z,99127.17
2019-03-01T19:23:13.300Z,99127.30
2019-03-01T19:25:44.151Z,99129.05
2019-03-01T19:28:15.106Z,99139.00
2019-03-01T19:30:49.339Z,99136.80
2019-03-01T19:33:18.768Z,99132.73
2019-03-01T19:35:49.926Z,99137.16
2019-03-01T19:38:21.814Z,99133.56
2019-03-01T19:40:53.910Z,99134.75
2019-03-01T19:43:24.952Z,99130.73
2019-03-01T19:45:55.954Z,99135.68
2019-03-01T19:48:27.054Z,99134.13
2019-03-01T19:51:01.466Z,99139.90
2019-03-01T19:53:30.998Z,99152.52
2019-03-01T19:56:02.268Z,99137.94
2019-03-01T19:58:33.390Z,99142.73
2019-03-01T20:01:04.381Z,99140.39
2019-03-01T20:03:35.308Z,99137.67
2019-03-01T20:06:07.963Z,99145.63
2019-03-01T20:08:38.910Z,99149.56
2019-03-01T20:11:09.849Z,99159.87
2019-03-01T20:13:41.952Z,99157.33
2019-03-01T20:16:12.994Z,99159.51
2019-03-01T20:18:45.036Z,99157.66
2019-03-01T20:21:16.599Z,99153.73
2019-03-01T20:23:47.572Z,99158.96
2019-03-01T20:26:18.595Z,99161.26
2019-03-01T20:28:50.539Z,99178.25
2019-03-01T20:31:23.425Z,99167.30
2019-03-01T20:33:54.388Z,99183.91
2019-03-01T20:36:25.247Z,99170.57
2019-03-01T20:38:56.287Z,99175.01
2019-03-01T20:41:27.189Z,99184.41
2019-03-01T20:43:58.240Z,99176.05
2019-03-01T20:46:29.271Z,99173.44
2019-03-01T20:49:00.717Z,99181.61
2019-03-01T20:51:33.008Z,99180.16
2019-03-01T20:54:03.910Z,99185.30
2019-03-01T20:56:34.865Z,99184.59
2019-03-01T20:59:05.760Z,99196.76
2019-03-01T21:01:37.307Z,99211.19
2019-03-01T21:04:09.262Z,99204.22
2019-03-01T21:06:40.567Z,99208.45
2019-03-01T21:09:11.694Z,99210.86
2019-03-01T21:11:42.753Z,99204.44
2019-03-01T21:14:13.694Z,99194.49
2019-03-01T21:16:45.665Z,99200.53
2019-03-01T21:19:17.828Z,99192.28
2019-03-01T21:21:48.763Z,99197.69
2019-03-01T21:24:22.932Z,99197.40
2019-03-01T21:26:52.257Z,99205.93
2019-03-01T21:29:23.115Z,99205.93
2019-03-01T21:31:54.118Z,99210.25
2019-03-01T21:34:25.213Z,99210.20
2019-03-01T21:36:58.975Z,99208.61
2019-03-01T21:39:29.996Z,99209.91
2019-03-01T21:42:01.098Z,99207.89
2019-03-01T21:44:32.062Z,99216.94
2019-03-01T21:47:03.069Z,99219.91
2019-03-01T21:49:34.154Z,99218.43
2019-03-01T21:52:05.151Z,99217.19
2019-03-01T21:54:36.137Z,99220.32
2019-03-01T21:57:07.030Z,99218.78
2019-03-01T21:59:37.928Z,99230.45
2019-03-01T22:02:08.808Z,99229.52
2019-03-01T22:04:39.769Z,99240.32
2019-03-01T22:07:10.691Z,99234.80
2019-03-01T22:09:42.754Z,99238.84
2019-03-01T22:12:13.792Z,99243.47
2019-03-01T22:14:45.682Z,99242.71
2019-03-01T22:17:17.428Z,99245.23
2019-03-01T22:19:48.348Z,99248.56
2019-03-01T22:22:19.289Z,99244.48
2019-03-01T22:24:50.241Z,99240.66
2019-03-01T22:27:25.059Z,99245.86
2019-03-01T22:29:54.198Z,99243.04
2019-03-01T22:32:25.051Z,99246.58
2019-03-01T22:34:55.952Z,99252.91
2019-03-01T22:37:28.397Z,99249.39
2019-03-01T22:39:59.557Z,99246.33
2019-03-01T22:42:30.493Z,99245.67
2019-03-01T22:45:01.442Z,99244.70
2019-03-01T22:47:36.063Z,99247.37
2019-03-01T22:50:09.529Z,99248.24
2019-03-01T22:52:40.428Z,99247.95
2019-03-01T22:55:15.827Z,99255.25
2019-03-01T22:57:46.705Z,99247.98
2019-03-01T23:00:47.992Z,99246.33
2019-03-01T23:03:20.562Z,99249.98
2019-03-01T23:05:51.622Z,99251.78
2019-03-01T23:08:22.690Z,99250.38
2019-03-01T23:10:53.701Z,99254.92
2019-03-01T23:13:26.211Z,99255.10
2019-03-01T23:15:57.151Z,99252.76
2019-03-01T23:18:28.184Z,99251.73
2019-03-01T23:21:01.003Z,99254.84
2019-03-01T23:23:31.803Z,99255.75
2019-03-01T23:26:02.865Z,99254.27
2019-03-01T23:28:34.785Z,99256.72
2019-03-01T23:31:05.849Z,99257.92
2019-03-01T23:33:36.766Z,99249.87
2019-03-01T23:36:07.768Z,99246.94
2019-03-01T23:38:38.668Z,99255.03
2019-03-01T23:41:11.500Z,99256.03
2019-03-01T23:43:43.212Z,99260.05
2019-03-01T23:46:14.113Z,99259.20
2019-03-01T23:48:45.494Z,99259.56
2019-03-01T23:51:17.804Z,99267.87
2019-03-01T23:53:48.704Z,99266.89
2019-03-01T23:56:19.694Z,99270.73
2019-03-01T23:58:51.839Z,99265.78
